createdAt,value
2022-11-26T12:01:52.591Z,33.67
2022-11-26T12:03:30.508Z,33.50
2022-11-26T12:05:14.121Z,34.50
2022-11-26T12:07:03.655Z,31.75
2022-11-26T12:08:57.126Z,33.40
2022-11-26T12:10:40.897Z,32.40
2022-11-26T12:12:31.132Z,32.00
2022-11-26T12:14:11.394Z,30.40
2022-11-26T12:15:58.809Z,30.80
2022-11-26T12:17:42.441Z,31.60
2022-11-26T12:20:12.560Z,32.20
2022-11-26T12:21:59.244Z,28.80
2022-11-26T12:24:04.837Z,31.20
2022-11-26T12:25:37.459Z,32.00
2022-11-26T12:27:22.733Z,27.60
2022-11-26T12:28:58.775Z,31.80
2022-11-26T12:30:51.699Z,29.60
2022-11-26T12:32:36.344Z,29.20
2022-11-26T12:34:15.397Z,28.60
2022-11-26T12:35:53.662Z,42.25
2022-11-26T12:37:32.076Z,40.00
2022-11-26T12:39:04.852Z,45.00
2022-11-26T12:40:46.079Z,39.50
2022-11-26T12:42:28.085Z,34.75
2022-11-26T12:44:13.976Z,41.00
2022-11-26T12:45:46.012Z,51.75
2022-11-26T12:47:26.811Z,42.75
2022-11-26T12:49:25.538Z,36.25
2022-11-26T12:51:01.746Z,35.50
2022-11-26T12:53:02.676Z,35.75
2022-11-26T12:54:39.378Z,39.75
2022-11-26T12:56:21.910Z,35.25
2022-11-26T12:58:04.410Z,36.50
2022-11-26T12:59:40.503Z,35.50
2022-11-26T13:01:12.276Z,32.80
2022-11-26T13:02:44.682Z,34.20
2022-11-26T13:06:45.577Z,33.80
2022-11-26T13:08:42.073Z,31.80
2022-11-26T13:10:57.919Z,29.40
2022-11-26T13:12:38.845Z,34.20
2022-11-26T13:14:31.832Z,32.40
2022-11-26T13:16:25.656Z,32.20
2022-11-26T13:17:57.615Z,29.00
2022-11-26T13:19:32.322Z,29.00
2022-11-26T13:21:26.518Z,29.40
2022-11-26T13:23:09.777Z,28.40
2022-11-26T13:25:24.187Z,28.40
2022-11-26T13:27:26.620Z,29.60
2022-11-26T13:29:24.247Z,30.60
2022-11-26T13:31:44.151Z,30.00
2022-11-26T13:33:37.508Z,30.40
2022-11-26T13:35:14.149Z,27.60
2022-11-26T13:37:07.648Z,28.40
2022-11-26T13:38:42.503Z,26.00
2022-11-26T13:40:57.404Z,87.00
2022-11-26T13:42:52.803Z,126.00
2022-11-26T13:44:36.964Z,75.00
2022-11-26T13:46:22.096Z,60.40
2022-11-26T13:47:57.247Z,66.00
2022-11-26T13:49:49.668Z,60.00
2022-11-26T13:51:24.310Z,52.50
2022-11-26T13:52:58.717Z,49.00
2022-11-26T13:54:35.736Z,56.50
2022-11-26T13:56:07.775Z,55.00
2022-11-26T13:57:46.257Z,60.25
2022-11-26T13:59:25.409Z,59.75
2022-11-26T14:01:40.173Z,65.00
2022-11-26T14:03:50.607Z,63.40
2022-11-26T14:05:23.433Z,66.00
2022-11-26T14:07:03.974Z,70.00
2022-11-26T14:08:41.312Z,69.80
2022-11-26T14:10:35.462Z,72.80
2022-11-26T14:12:08.551Z,73.80
2022-11-26T14:13:41.391Z,73.40
2022-11-26T14:15:44.509Z,70.60
2022-11-26T14:17:19.795Z,70.20
2022-11-26T14:18:59.102Z,72.20
2022-11-26T14:20:31.798Z,65.50
2022-11-26T14:22:04.461Z,72.25
2022-11-26T14:23:46.733Z,82.00
2022-11-26T14:25:19.476Z,83.00
2022-11-26T14:26:51.958Z,88.75
2022-11-26T14:28:24.486Z,88.50
2022-11-26T14:30:08.427Z,91.25
2022-11-26T14:31:53.988Z,95.00
2022-11-26T14:33:28.158Z,90.50
2022-11-26T14:35:02.781Z,90.75
2022-11-26T14:36:34.822Z,93.75
2022-11-26T14:38:19.750Z,101.50
2022-11-26T14:40:20.014Z,94.75
2022-11-26T14:41:52.966Z,98.25
2022-11-26T14:43:24.896Z,102.75
2022-11-26T14:45:20.606Z,95.25
2022-11-26T14:46:54.899Z,96.00
2022-11-26T14:48:28.064Z,96.75
2022-11-26T14:50:01.529Z,99.00
2022-11-26T14:51:33.784Z,91.75
2022-11-26T14:53:05.811Z,105.75
2022-11-26T14:54:38.764Z,98.25
2022-11-26T14:56:10.679Z,94.75
2022-11-26T14:57:46.684Z,94.50
2022-11-26T14:59:18.637Z,90.00
2022-11-26T15:01:03.399Z,95.00
2022-11-26T15:02:38.815Z,91.25
2022-11-26T15:04:31.289Z,96.25
2022-11-26T15:06:02.992Z,96.25
2022-11-26T15:07:35.101Z,95.25
2022-11-26T15:09:15.337Z,94.75
2022-11-26T15:10:51.195Z,88.00
2022-11-26T15:12:23.763Z,82.50
2022-11-26T15:13:55.412Z,97.00
2022-11-26T15:15:27.336Z,140.33
2022-11-26T15:17:03.343Z,230.00
2022-11-26T15:18:35.324Z,216.75
2022-11-26T15:20:07.761Z,210.00
2022-11-26T15:21:40.123Z,193.00
2022-11-26T15:23:14.585Z,148.25
2022-11-26T15:24:50.004Z,144.33
2022-11-26T15:26:24.976Z,101.50
2022-11-26T15:28:06.685Z,145.67
2022-11-26T15:29:41.475Z,122.33
2022-11-26T15:31:13.267Z,113.75
2022-11-26T15:32:45.025Z,117.25
2022-11-26T15:34:16.770Z,103.50
2022-11-26T15:35:50.712Z,99.25
2022-11-26T15:37:22.480Z,90.00
2022-11-26T15:39:03.127Z,105.00
2022-11-26T15:40:54.451Z,100.00
2022-11-26T15:42:28.291Z,100.00
2022-11-26T15:44:00.228Z,100.00
2022-11-26T15:45:37.792Z,92.75
2022-11-26T15:47:13.495Z,87.00
2022-11-26T15:48:53.747Z,84.75
2022-11-26T15:50:30.180Z,79.50
2022-11-26T15:52:12.196Z,87.75
2022-11-26T15:53:46.223Z,86.50
2022-11-26T15:55:23.125Z,91.75
2022-11-26T15:56:56.657Z,86.00
2022-11-26T15:58:30.779Z,90.75
2022-11-26T16:00:20.157Z,98.00
2022-11-26T16:01:52.182Z,90.00
2022-11-26T16:03:44.354Z,95.00
2022-11-26T16:05:38.161Z,97.00
2022-11-26T16:07:09.827Z,96.00
2022-11-26T16:09:16.171Z,98.25
2022-11-26T16:11:05.004Z,105.50
2022-11-26T16:12:44.844Z,107.50
2022-11-26T16:14:27.756Z,97.50
2022-11-26T16:16:04.137Z,113.25
2022-11-26T16:17:37.208Z,114.75
2022-11-26T16:19:12.380Z,113.75
2022-11-26T16:20:45.412Z,108.75
2022-11-26T16:22:21.747Z,113.25
2022-11-26T16:24:08.625Z,114.75
2022-11-26T16:25:41.224Z,106.75
2022-11-26T16:27:23.863Z,110.25
2022-11-26T16:28:56.614Z,119.00
2022-11-26T16:30:29.075Z,117.50
2022-11-26T16:32:01.289Z,111.00
2022-11-26T16:33:33.641Z,108.75
2022-11-26T16:35:29.784Z,111.00
2022-11-26T16:37:19.539Z,111.50
2022-11-26T16:38:51.918Z,103.75
2022-11-26T16:40:24.224Z,109.75
2022-11-26T16:41:56.051Z,101.25
2022-11-26T16:43:27.905Z,113.00
2022-11-26T16:45:03.911Z,110.50
2022-11-26T16:46:37.104Z,111.25
2022-11-26T16:48:25.827Z,109.50
2022-11-26T16:49:57.536Z,114.25
2022-11-26T16:51:29.376Z,116.50
2022-11-26T16:53:01.251Z,119.00
2022-11-26T16:54:33.032Z,107.25
2022-11-26T16:56:05.376Z,113.00
2022-11-26T16:57:37.174Z,114.00
2022-11-26T16:59:18.822Z,114.00
2022-11-26T17:00:51.246Z,112.00
2022-11-26T17:02:23.619Z,101.25
2022-11-26T17:03:55.788Z,110.00
2022-11-26T17:05:27.606Z,109.50
2022-11-26T17:06:59.523Z,111.25
2022-11-26T17:08:31.163Z,119.00
2022-11-26T17:10:03.358Z,113.25
2022-11-26T17:11:35.129Z,106.50
2022-11-26T17:13:07.388Z,99.75
2022-11-26T17:14:39.120Z,94.00
2022-11-26T17:16:15.202Z,100.25
2022-11-26T17:17:47.033Z,97.50
2022-11-26T17:19:19.338Z,98.75
2022-11-26T17:20:51.706Z,98.25
2022-11-26T17:22:24.279Z,94.25
2022-11-26T17:23:55.993Z,85.00
2022-11-26T17:25:27.742Z,93.25
2022-11-26T17:27:00.018Z,98.00
2022-11-26T17:28:31.697Z,88.50
2022-11-26T17:30:04.664Z,88.50
2022-11-26T17:31:37.435Z,86.00
2022-11-26T17:33:09.288Z,87.50
2022-11-26T17:34:41.422Z,91.25
2022-11-26T17:36:17.911Z,84.25
2022-11-26T17:37:49.619Z,89.00
2022-11-26T17:39:21.352Z,90.00
2022-11-26T17:40:53.006Z,96.75
2022-11-26T17:42:24.875Z,98.25
2022-11-26T17:43:56.628Z,95.25
2022-11-26T17:45:28.307Z,100.00
2022-11-26T17:47:16.414Z,101.25
2022-11-26T17:48:49.489Z,97.75
2022-11-26T17:50:23.180Z,98.25
2022-11-26T17:51:54.892Z,94.75
2022-11-26T17:53:26.585Z,97.25
2022-11-26T17:54:58.299Z,106.50
2022-11-26T17:56:30.089Z,95.50
2022-11-26T17:58:01.768Z,99.00
2022-11-26T17:59:33.632Z,97.25
2022-11-26T18:01:05.464Z,99.25
2022-11-26T18:02:37.257Z,94.75
2022-11-26T18:04:09.046Z,97.25
2022-11-26T18:05:42.460Z,91.50
2022-11-26T18:07:15.991Z,89.50
2022-11-26T18:08:47.820Z,89.50
2022-11-26T18:10:20.391Z,90.50
2022-11-26T18:11:54.492Z,92.00
2022-11-26T18:13:27.247Z,77.00
2022-11-26T18:14:59.152Z,82.00
2022-11-26T18:16:33.133Z,82.00
2022-11-26T18:18:04.952Z,79.00
2022-11-26T18:19:42.121Z,87.75
2022-11-26T18:21:15.431Z,100.50
2022-11-26T18:22:50.343Z,96.25
2022-11-26T18:24:22.119Z,81.50
2022-11-26T18:25:53.883Z,76.00
2022-11-26T18:27:27.096Z,88.50
2022-11-26T18:29:01.678Z,81.25
2022-11-26T18:30:33.386Z,79.00
2022-11-26T18:32:05.332Z,75.25
2022-11-26T18:33:37.233Z,86.50
2022-11-26T18:35:09.371Z,82.00
2022-11-26T18:36:41.133Z,69.40
2022-11-26T18:38:12.989Z,65.40
2022-11-26T18:39:44.713Z,65.60
2022-11-26T18:41:16.419Z,62.75
2022-11-26T18:42:51.813Z,55.75
2022-11-26T18:44:23.732Z,52.50
2022-11-26T18:45:56.130Z,46.75
2022-11-26T18:47:27.917Z,48.75
2022-11-26T18:49:00.541Z,44.75
2022-11-26T18:50:32.259Z,42.25
2022-11-26T18:52:05.588Z,40.25
2022-11-26T18:53:37.368Z,36.00
2022-11-26T18:55:09.660Z,35.50
2022-11-26T18:56:41.359Z,36.25
2022-11-26T18:58:14.089Z,33.50
2022-11-26T18:59:46.929Z,33.40
2022-11-26T19:01:23.600Z,31.20
2022-11-26T19:02:55.546Z,30.80
2022-11-26T19:04:27.267Z,31.40
2022-11-26T19:05:59.201Z,29.80
2022-11-26T19:07:33.263Z,26.60
2022-11-26T19:09:11.732Z,28.20
2022-11-26T19:10:43.517Z,25.60
2022-11-26T19:12:15.269Z,26.20
2022-11-26T19:13:47.966Z,23.60
2022-11-26T19:15:19.846Z,24.80
2022-11-26T19:16:52.379Z,28.40
2022-11-26T19:18:24.137Z,31.80
2022-11-26T19:19:56.100Z,30.00
2022-11-26T19:21:29.363Z,30.80
2022-11-26T19:23:01.109Z,40.00
2022-11-26T19:24:32.796Z,36.25
2022-11-26T19:26:05.470Z,34.75
2022-11-26T19:27:37.326Z,36.75
2022-11-26T19:29:09.604Z,38.75
2022-11-26T19:30:41.662Z,38.75
2022-11-26T19:32:13.389Z,42.50
2022-11-26T19:33:48.914Z,40.00
2022-11-26T19:35:20.634Z,40.75
2022-11-26T19:36:56.642Z,40.25
2022-11-26T19:38:28.423Z,40.50
2022-11-26T19:40:00.159Z,46.25
2022-11-26T19:41:32.189Z,54.50
2022-11-26T19:43:03.900Z,56.25
2022-11-26T19:44:35.812Z,61.50
2022-11-26T19:46:08.571Z,55.00
2022-11-26T19:47:40.303Z,61.00
2022-11-26T19:49:12.249Z,64.40
2022-11-26T19:50:44.255Z,56.00
2022-11-26T19:52:16.021Z,66.40
2022-11-26T19:53:48.738Z,65.80
2022-11-26T19:55:20.841Z,69.40
2022-11-26T19:56:52.742Z,68.60
2022-11-26T19:58:24.706Z,70.80
2022-11-26T19:59:56.441Z,67.80
2022-11-26T20:01:30.686Z,72.80
2022-11-26T20:03:02.652Z,69.40
2022-11-26T20:04:34.443Z,67.60
2022-11-26T20:06:27.175Z,67.80
2022-11-26T20:07:59.032Z,64.60
2022-11-26T20:09:30.794Z,67.60
2022-11-26T20:11:03.618Z,74.80
2022-11-26T20:12:35.432Z,78.25
2022-11-26T20:14:10.923Z,78.00
2022-11-26T20:15:47.252Z,83.25
2022-11-26T20:17:19.013Z,79.00
2022-11-26T20:18:50.727Z,77.75
2022-11-26T20:20:22.416Z,84.50
2022-11-26T20:21:54.145Z,82.00
2022-11-26T20:23:26.293Z,83.00
2022-11-26T20:24:58.033Z,81.00
2022-11-26T20:26:32.028Z,87.50
2022-11-26T20:28:04.021Z,81.75
2022-11-26T20:29:35.761Z,79.50
2022-11-26T20:31:07.581Z,82.50
2022-11-26T20:32:39.853Z,87.00
2022-11-26T20:34:14.059Z,90.50
2022-11-26T20:35:45.949Z,86.75
2022-11-26T20:37:17.714Z,87.75
2022-11-26T20:38:56.290Z,90.50
2022-11-26T20:40:28.031Z,84.00
2022-11-26T20:42:00.057Z,92.25
2022-11-26T20:43:31.742Z,96.25
2022-11-26T20:45:04.484Z,88.50
2022-11-26T20:46:36.417Z,87.50
2022-11-26T20:48:08.266Z,93.25
2022-11-26T20:49:42.852Z,86.50
2022-11-26T20:51:17.093Z,79.25
2022-11-26T20:52:48.830Z,84.00
2022-11-26T20:54:20.715Z,83.00
2022-11-26T20:55:56.364Z,117.00
2022-11-26T20:57:28.017Z,93.00
2022-11-26T20:59:00.987Z,90.50
2022-11-26T21:00:32.672Z,90.00
2022-11-26T21:02:04.551Z,86.50
2022-11-26T21:03:37.682Z,79.50
2022-11-26T21:05:09.906Z,86.25
2022-11-26T21:06:42.273Z,79.25
2022-11-26T21:08:14.081Z,87.25
2022-11-26T21:09:46.930Z,92.50
2022-11-26T21:11:18.981Z,86.50
2022-11-26T21:12:50.689Z,82.75
2022-11-26T21:14:22.680Z,83.50
2022-11-26T21:15:54.665Z,81.00
2022-11-26T21:17:26.548Z,78.75
2022-11-26T21:18:58.510Z,73.25
2022-11-26T21:20:34.861Z,79.25
2022-11-26T21:22:07.867Z,85.75
2022-11-26T21:23:39.949Z,90.25
2022-11-26T21:25:11.674Z,89.00
2022-11-26T21:26:43.501Z,87.00
2022-11-26T21:28:15.226Z,80.50
2022-11-26T21:29:46.956Z,89.25
2022-11-26T21:31:18.924Z,87.75
2022-11-26T21:32:50.694Z,87.25
2022-11-26T21:34:22.376Z,88.50
2022-11-26T21:35:54.012Z,87.75
2022-11-26T21:37:27.493Z,82.50
2022-11-26T21:38:59.467Z,89.50
2022-11-26T21:40:31.252Z,85.50
2022-11-26T21:42:03.062Z,90.50
2022-11-26T21:43:34.763Z,85.75
2022-11-26T21:45:08.008Z,97.00
2022-11-26T21:46:40.235Z,90.50
2022-11-26T21:48:12.060Z,81.50
2022-11-26T21:49:43.781Z,91.75
2022-11-26T21:51:16.668Z,89.25
2022-11-26T21:52:48.481Z,88.50
2022-11-26T21:54:20.288Z,92.00
2022-11-26T21:55:53.107Z,86.75
2022-11-26T21:57:24.837Z,82.25
2022-11-26T21:58:58.665Z,87.25
2022-11-26T22:00:30.367Z,82.75
2022-11-26T22:02:02.417Z,83.00
2022-11-26T22:03:35.047Z,121.00
2022-11-26T22:05:07.141Z,85.25
2022-11-26T22:06:41.268Z,85.50
2022-11-26T22:08:13.247Z,93.75
2022-11-26T22:09:44.948Z,87.50
2022-11-26T22:11:21.580Z,101.25
2022-11-26T22:12:53.344Z,92.75
2022-11-26T22:14:25.158Z,92.00
2022-11-26T22:15:56.999Z,100.75
2022-11-26T22:17:28.766Z,91.50
2022-11-26T22:19:00.974Z,87.75
2022-11-26T22:20:32.691Z,85.75
2022-11-26T22:22:04.448Z,83.75
2022-11-26T22:23:36.227Z,84.50
2022-11-26T22:25:08.282Z,84.75
2022-11-26T22:26:40.019Z,87.50
2022-11-26T22:28:11.802Z,83.75
2022-11-26T22:29:43.505Z,86.25
2022-11-26T22:31:22.868Z,88.75
2022-11-26T22:32:54.696Z,87.25
2022-11-26T22:34:27.808Z,88.25
2022-11-26T22:36:01.426Z,89.00
2022-11-26T22:37:34.261Z,90.75
2022-11-26T22:39:06.832Z,92.00
2022-11-26T22:40:38.554Z,95.00
2022-11-26T22:42:10.610Z,88.25
2022-11-26T22:43:42.659Z,90.75
2022-11-26T22:45:14.485Z,87.75
2022-11-26T22:46:46.264Z,82.00
2022-11-26T22:48:18.114Z,82.50
2022-11-26T22:49:50.204Z,86.50
2022-11-26T22:51:22.864Z,78.25
2022-11-26T22:52:54.747Z,80.25
2022-11-26T22:54:26.562Z,79.25
2022-11-26T22:55:59.264Z,82.25
2022-11-26T22:57:31.267Z,83.00
2022-11-26T22:59:03.029Z,77.00
2022-11-26T23:00:48.979Z,75.75
2022-11-26T23:02:21.720Z,75.00
2022-11-26T23:03:53.904Z,75.80
2022-11-26T23:05:25.595Z,75.80
2022-11-26T23:06:57.420Z,65.40
2022-11-26T23:08:29.317Z,72.00
2022-11-26T23:10:01.079Z,74.60
2022-11-26T23:11:35.352Z,69.60
2022-11-26T23:13:07.560Z,65.40
2022-11-26T23:14:39.268Z,62.60
2022-11-26T23:16:12.138Z,68.00
2022-11-26T23:17:44.672Z,65.50
2022-11-26T23:19:16.739Z,64.75
2022-11-26T23:20:48.468Z,59.50
2022-11-26T23:22:20.215Z,62.00
2022-11-26T23:23:52.045Z,59.50
2022-11-26T23:25:23.837Z,54.25
2022-11-26T23:26:55.942Z,50.75
2022-11-26T23:28:27.640Z,50.00
2022-11-26T23:30:00.103Z,58.25
2022-11-26T23:31:39.122Z,52.75
2022-11-26T23:33:10.923Z,49.75
2022-11-26T23:34:42.696Z,44.75
